Time;durP1;ratioP1;P1;durP2;ratioP2;P2;SDS_P1;SDS_P2;PMS_P1;PMS_P2;Temp;Humidity;BMP_temperature;BMP_pressure;BME280_temperature;BME280_humidity;BME280_pressure;Samples;Min_cycle;Max_cycle;Signal;HPM_P1;HPM_P2
2021/05/24 00:01:05;;;;;;;10.17;8.20;;;10.10;98.30;;;;;;4163141;28;20493;-84
2021/05/24 00:03:08;;;;;;;9.60;8.60;;;10.10;98.30;;;;;;4159244;28;20849;-84
2021/05/24 00:05:13;;;;;;;13.07;8.93;;;10.10;98.30;;;;;;4160016;28;20556;-84
2021/05/24 00:07:16;;;;;;;9.50;8.60;;;10.00;98.30;;;;;;4161751;28;20775;-84
2021/05/24 00:09:20;;;;;;;9.73;7.83;;;10.10;98.30;;;;;;4160918;28;20597;-84
2021/05/24 00:11:23;;;;;;;9.07;8.10;;;10.00;98.30;;;;;;4160902;28;20491;-84
2021/05/24 00:13:25;;;;;;;11.23;7.97;;;10.00;98.30;;;;;;4162632;28;20553;-84
2021/05/24 00:15:35;;;;;;;14.70;9.00;;;10.00;98.30;;;;;;4161734;28;20783;-85
2021/05/24 00:17:38;;;;;;;9.43;8.53;;;10.00;98.30;;;;;;4161949;28;20958;-85
2021/05/24 00:19:40;;;;;;;10.20;8.90;;;10.00;98.30;;;;;;4162082;28;20523;-84
2021/05/24 00:21:42;;;;;;;9.87;8.83;;;10.00;98.30;;;;;;4159358;28;20492;-84
2021/05/24 00:23:45;;;;;;;12.30;9.23;;;9.90;98.30;;;;;;4162096;28;20526;-84
2021/05/24 00:25:48;;;;;;;9.50;8.50;;;9.90;98.30;;;;;;4156798;28;20483;-85
2021/05/24 00:27:52;;;;;;;12.10;8.50;;;9.90;98.30;;;;;;4161142;28;20984;-85
2021/05/24 00:29:54;;;;;;;10.60;7.97;;;9.90;98.30;;;;;;4162232;28;20501;-85
2021/05/24 00:31:59;;;;;;;10.63;8.90;;;9.90;98.30;;;;;;4157291;28;20872;-85
2021/05/24 00:34:02;;;;;;;8.03;7.20;;;9.90;98.30;;;;;;4161202;28;20469;-85
2021/05/24 00:36:05;;;;;;;8.73;7.90;;;9.90;98.30;;;;;;4160042;28;20479;-85
2021/05/24 00:38:08;;;;;;;8.53;7.33;;;9.90;98.30;;;;;;4161110;28;20477;-85
2021/05/24 00:40:11;;;;;;;9.17;7.63;;;10.00;98.30;;;;;;4162112;28;20488;-84
2021/05/24 00:42:14;;;;;;;10.80;7.70;;;9.90;98.30;;;;;;4158515;28;20465;-84
2021/05/24 00:44:16;;;;;;;8.67;7.40;;;9.90;98.30;;;;;;4162069;28;21087;-85
2021/05/24 00:46:19;;;;;;;10.40;7.40;;;10.00;98.30;;;;;;4163157;28;20440;-85
2021/05/24 00:48:22;;;;;;;8.90;7.33;;;10.00;98.30;;;;;;4161893;28;21236;-86
2021/05/24 00:50:25;;;;;;;9.03;8.10;;;10.10;98.30;;;;;;4163019;28;20929;-85
2021/05/24 00:52:27;;;;;;;8.17;6.90;;;10.10;98.30;;;;;;4156350;28;20464;-85
2021/05/24 00:54:30;;;;;;;8.53;6.90;;;10.00;98.30;;;;;;4160485;28;20473;-85
2021/05/24 00:56:32;;;;;;;8.10;7.30;;;10.00;98.30;;;;;;4161733;28;20505;-85
2021/05/24 00:58:35;;;;;;;8.57;6.87;;;10.10;98.30;;;;;;4161517;28;20476;-85
2021/05/24 01:00:39;;;;;;;10.97;8.30;;;10.10;98.30;;;;;;4161777;28;20499;-85
2021/05/24 01:02:42;;;;;;;8.87;7.73;;;10.10;98.30;;;;;;4159471;28;20475;-85
2021/05/24 01:04:45;;;;;;;10.70;7.83;;;10.10;98.30;;;;;;4159249;28;20966;-85
2021/05/24 01:06:48;;;;;;;9.83;7.20;;;10.10;98.30;;;;;;4159446;28;20481;-85
2021/05/24 01:08:50;;;;;;;10.20;7.40;;;10.10;98.30;;;;;;4160250;28;20477;-84
2021/05/24 01:10:54;;;;;;;11.07;7.23;;;10.10;98.30;;;;;;4158437;28;21356;-84
2021/05/24 01:12:58;;;;;;;9.43;6.50;;;10.20;98.30;;;;;;4160769;28;20520;-85
2021/05/24 01:15:01;;;;;;;9.73;6.97;;;10.10;98.30;;;;;;4161152;28;20477;-85
2021/05/24 01:17:04;;;;;;;7.70;6.40;;;10.10;98.30;;;;;;4161254;28;20500;-85
2021/05/24 01:19:06;;;;;;;8.30;6.70;;;10.20;98.30;;;;;;4160436;28;20512;-85
2021/05/24 01:21:11;;;;;;;7.77;7.00;;;10.20;98.30;;;;;;4158061;28;20843;-84
2021/05/24 01:23:17;;;;;;;9.87;6.73;;;10.10;98.30;;;;;;4160425;28;20504;-85
2021/05/24 01:25:19;;;;;;;7.73;7.03;;;10.10;98.30;;;;;;4159279;28;20985;-85
2021/05/24 01:27:22;;;;;;;10.20;7.17;;;10.20;98.30;;;;;;4160202;28;20472;-85
2021/05/24 01:29:24;;;;;;;9.03;6.90;;;10.20;98.30;;;;;;4160741;28;20465;-85
2021/05/24 01:31:27;;;;;;;7.60;6.87;;;10.20;98.30;;;;;;4158308;28;20989;-85
2021/05/24 01:33:29;;;;;;;8.23;6.67;;;10.20;98.30;;;;;;4160281;28;21120;-85
2021/05/24 01:35:32;;;;;;;7.77;7.00;;;10.20;98.30;;;;;;4161397;28;20469;-84
2021/05/24 01:37:35;;;;;;;12.00;7.43;;;10.20;98.30;;;;;;4160209;28;20564;-85
2021/05/24 01:39:38;;;;;;;7.43;6.17;;;10.30;98.30;;;;;;4160175;28;20493;-85
2021/05/24 01:41:40;;;;;;;7.20;6.50;;;10.20;98.30;;;;;;4154547;28;20477;-84
2021/05/24 01:43:43;;;;;;;7.20;6.50;;;10.20;98.30;;;;;;4159886;28;20481;-85
2021/05/24 01:45:46;;;;;;;7.73;6.97;;;10.20;98.30;;;;;;4161021;28;20469;-85
2021/05/24 01:47:48;;;;;;;7.57;6.47;;;10.20;98.30;;;;;;4160824;28;20495;-85
2021/05/24 01:49:50;;;;;;;6.63;5.90;;;10.20;98.30;;;;;;4159811;28;20489;-85
2021/05/24 01:51:53;;;;;;;8.47;6.50;;;10.10;98.30;;;;;;4155466;28;20465;-85
2021/05/24 01:53:56;;;;;;;6.60;5.90;;;10.20;98.30;;;;;;4159343;28;20475;-86
2021/05/24 01:55:59;;;;;;;7.17;6.47;;;10.20;98.30;;;;;;4159364;28;20469;-85
2021/05/24 01:58:02;;;;;;;7.00;6.30;;;10.20;98.30;;;;;;4160465;28;20560;-85
2021/05/24 02:00:07;;;;;;;6.70;6.00;;;10.10;98.30;;;;;;4162717;28;20499;-85
2021/05/24 02:02:09;;;;;;;7.00;6.30;;;10.20;98.30;;;;;;4167008;28;20442;-85
2021/05/24 02:04:14;;;;;;;6.80;6.13;;;10.20;98.30;;;;;;4164479;28;20496;-85
2021/05/24 02:06:17;;;;;;;8.70;6.00;;;10.20;98.30;;;;;;4166671;28;20471;-85
2021/05/24 02:08:19;;;;;;;6.63;5.77;;;10.10;98.30;;;;;;4164337;28;20461;-86
2021/05/24 02:10:25;;;;;;;9.40;6.20;;;10.10;98.30;;;;;;4166362;28;20519;-85
2021/05/24 02:12:28;;;;;;;6.80;6.20;;;10.10;98.30;;;;;;4165827;28;20492;-85
2021/05/24 02:14:30;;;;;;;6.80;6.07;;;10.20;98.30;;;;;;4166300;28;21068;-87
2021/05/24 02:16:38;;;;;;;8.33;6.27;;;10.10;98.30;;;;;;4169701;28;20962;-84
2021/05/24 02:18:41;;;;;;;8.53;6.23;;;10.10;98.30;;;;;;4166768;28;20492;-84
2021/05/24 02:20:44;;;;;;;7.37;6.27;;;10.20;98.30;;;;;;4168051;28;20484;-85
2021/05/24 02:22:46;;;;;;;9.27;7.20;;;10.10;98.30;;;;;;4169608;28;20524;-84
2021/05/24 02:24:48;;;;;;;7.97;6.60;;;10.10;98.30;;;;;;4168080;28;20812;-87
2021/05/24 02:26:52;;;;;;;6.50;5.90;;;10.20;98.30;;;;;;4169139;28;20483;-87
2021/05/24 02:28:54;;;;;;;9.00;6.63;;;10.20;98.30;;;;;;4168008;28;20548;-85
2021/05/24 02:30:57;;;;;;;7.93;6.37;;;10.10;98.30;;;;;;4169196;28;21051;-86
2021/05/24 02:32:59;;;;;;;10.33;6.20;;;10.10;98.30;;;;;;4170708;28;20492;-86
2021/05/24 02:35:02;;;;;;;9.50;6.23;;;10.10;98.30;;;;;;4169778;28;20564;-85
2021/05/24 02:37:10;;;;;;;5.80;5.30;;;10.10;98.30;;;;;;4170882;28;20497;-85
2021/05/24 02:39:13;;;;;;;6.60;5.20;;;10.00;98.30;;;;;;4171006;28;20500;-86
2021/05/24 02:41:15;;;;;;;9.40;6.20;;;10.10;98.30;;;;;;4171017;28;20910;-85
2021/05/24 02:43:19;;;;;;;8.10;5.70;;;10.10;98.30;;;;;;4170262;28;20457;-86
2021/05/24 02:45:21;;;;;;;6.53;5.27;;;10.10;98.30;;;;;;4169160;28;20440;-86
2021/05/24 02:47:24;;;;;;;7.17;6.13;;;10.10;98.30;;;;;;4170012;28;20468;-85
2021/05/24 02:49:26;;;;;;;8.87;6.00;;;10.10;98.30;;;;;;4170963;28;20461;-87
2021/05/24 02:51:29;;;;;;;7.40;5.60;;;10.20;98.30;;;;;;4170891;28;20504;-85
2021/05/24 02:53:31;;;;;;;9.30;6.13;;;10.20;98.30;;;;;;4169019;28;20545;-85
2021/05/24 02:55:34;;;;;;;6.63;6.00;;;10.20;98.30;;;;;;4170117;28;20439;-86
2021/05/24 02:57:37;;;;;;;6.17;5.20;;;10.20;98.30;;;;;;4168883;28;20468;-85
2021/05/24 02:59:40;;;;;;;8.60;6.53;;;10.20;98.30;;;;;;4171371;28;20488;-86
2021/05/24 03:01:43;;;;;;;6.37;5.77;;;10.20;98.30;;;;;;4174486;28;20475;-85
2021/05/24 03:03:45;;;;;;;8.07;5.37;;;10.20;98.30;;;;;;4172325;28;20457;-85
2021/05/24 03:05:47;;;;;;;5.63;5.13;;;10.20;98.30;;;;;;4173959;28;20469;-85
2021/05/24 03:07:51;;;;;;;8.50;5.00;;;10.20;98.30;;;;;;4172159;28;20475;-85
2021/05/24 03:09:54;;;;;;;6.50;5.80;;;10.30;98.30;;;;;;4175739;28;20556;-86
2021/05/24 03:11:57;;;;;;;5.77;4.87;;;10.20;98.30;;;;;;4175255;28;20897;-85
2021/05/24 03:13:59;;;;;;;6.10;5.00;;;10.20;98.30;;;;;;4172695;28;20489;-85
2021/05/24 03:16:03;;;;;;;7.10;5.23;;;10.30;98.30;;;;;;4172161;28;20557;-87
2021/05/24 03:18:06;;;;;;;5.43;4.80;;;10.20;98.30;;;;;;4171559;28;20462;-86
2021/05/24 03:20:10;;;;;;;7.13;5.70;;;10.20;98.30;;;;;;4169979;28;21021;-85
2021/05/24 03:22:13;;;;;;;8.83;5.23;;;10.20;98.30;;;;;;4171231;28;20473;-85
2021/05/24 03:24:15;;;;;;;5.57;4.97;;;10.20;98.30;;;;;;4171445;28;20469;-86
2021/05/24 03:26:31;;;;;;;5.80;5.20;;;10.20;98.30;;;;;;4170699;28;20499;-88
2021/05/24 03:28:33;;;;;;;5.60;4.33;;;10.10;98.30;;;;;;4168376;28;20479;-85
2021/05/24 03:30:36;;;;;;;6.43;5.30;;;10.20;98.30;;;;;;4171136;28;20499;-86
2021/05/24 03:32:40;;;;;;;5.47;4.60;;;10.30;98.30;;;;;;4170823;28;20977;-85
2021/05/24 03:34:42;;;;;;;6.57;4.40;;;10.20;98.30;;;;;;4171579;28;21063;-85
2021/05/24 03:36:45;;;;;;;7.50;5.33;;;10.30;98.30;;;;;;4171504;28;20465;-85
2021/05/24 03:38:48;;;;;;;5.93;4.83;;;10.30;98.30;;;;;;4173876;28;20582;-85
2021/05/24 03:40:51;;;;;;;5.50;5.00;;;10.20;98.30;;;;;;4174006;28;20516;-86
2021/05/24 03:42:53;;;;;;;6.30;5.20;;;10.20;98.30;;;;;;4173841;28;20465;-85
2021/05/24 03:44:57;;;;;;;8.53;5.60;;;10.20;98.30;;;;;;4171590;28;20473;-84
2021/05/24 03:46:59;;;;;;;5.93;5.03;;;10.30;98.30;;;;;;4173745;28;20461;-85
2021/05/24 03:49:03;;;;;;;6.93;4.47;;;10.30;98.30;;;;;;4173753;28;20512;-85
2021/05/24 03:51:07;;;;;;;8.80;4.87;;;10.20;98.30;;;;;;4172359;28;20485;-85
2021/05/24 03:53:09;;;;;;;7.83;5.40;;;10.40;98.30;;;;;;4170652;28;20488;-84
2021/05/24 03:55:13;;;;;;;9.70;5.17;;;10.40;98.30;;;;;;4171837;28;20461;-83
2021/05/24 04:00:27;;;;;;;6.90;4.47;;;10.40;98.30;;;;;;4170909;28;20526;-85
2021/05/24 04:02:29;;;;;;;5.40;4.40;;;10.40;98.30;;;;;;4169986;28;20542;-85
2021/05/24 04:04:33;;;;;;;8.53;4.93;;;10.40;98.30;;;;;;4171081;28;20507;-86
2021/05/24 04:06:37;;;;;;;5.70;5.10;;;10.50;98.30;;;;;;4174005;28;20464;-85
2021/05/24 04:08:42;;;;;;;5.93;4.90;;;10.50;98.30;;;;;;4175450;28;20468;-87
2021/05/24 04:10:52;;;;;;;5.50;4.57;;;10.50;98.30;;;;;;4172753;28;20491;-86
2021/05/24 04:12:55;;;;;;;7.70;4.97;;;10.50;98.30;;;;;;4172474;28;20856;-88
2021/05/24 04:14:58;;;;;;;9.07;4.57;;;10.40;98.30;;;;;;4170063;28;20481;-84
2021/05/24 04:17:02;;;;;;;6.70;4.80;;;10.40;98.30;;;;;;4170868;28;20489;-85
2021/05/24 04:19:07;;;;;;;5.50;4.50;;;10.40;98.30;;;;;;4172488;28;20453;-85
2021/05/24 04:21:13;;;;;;;7.73;4.30;;;10.50;98.30;;;;;;4170442;28;20543;-85
2021/05/24 04:23:16;;;;;;;7.20;4.77;;;10.50;98.30;;;;;;4170782;28;20564;-85
2021/05/24 04:25:22;;;;;;;5.30;4.13;;;10.60;98.30;;;;;;4171560;28;20508;-86
2021/05/24 04:27:29;;;;;;;7.47;4.57;;;10.50;98.30;;;;;;4170485;28;20921;-84
2021/05/24 04:29:38;;;;;;;5.20;4.40;;;10.50;98.30;;;;;;4169973;28;20488;-86
2021/05/24 04:31:42;;;;;;;4.80;4.40;;;10.50;98.30;;;;;;4173071;28;20471;-85
2021/05/24 04:33:45;;;;;;;6.97;4.33;;;10.50;98.30;;;;;;4170538;28;20556;-85
2021/05/24 04:35:47;;;;;;;4.90;4.37;;;10.60;98.30;;;;;;4172143;28;20584;-86
2021/05/24 04:37:51;;;;;;;4.87;4.13;;;10.60;98.30;;;;;;4173507;28;20464;-87
2021/05/24 04:39:54;;;;;;;5.33;4.03;;;10.60;98.30;;;;;;4170710;28;20982;-85
2021/05/24 04:41:56;;;;;;;5.07;4.53;;;10.60;98.30;;;;;;4169857;28;20469;-84
2021/05/24 04:44:10;;;;;;;4.40;4.00;;;10.60;98.30;;;;;;4168432;28;20457;-85
2021/05/24 04:46:13;;;;;;;6.87;4.27;;;10.60;98.30;;;;;;4169112;28;21157;-84
2021/05/24 04:48:15;;;;;;;6.50;4.10;;;10.60;98.30;;;;;;4169915;28;20475;-84
2021/05/24 04:50:18;;;;;;;4.90;3.63;;;10.70;98.30;;;;;;4172003;28;20504;-85
2021/05/24 04:52:20;;;;;;;6.27;4.30;;;10.70;98.30;;;;;;4170178;28;20479;-84
2021/05/24 04:54:24;;;;;;;6.23;3.90;;;10.60;98.30;;;;;;4167419;28;20480;-84
2021/05/24 04:56:26;;;;;;;9.47;4.13;;;10.70;98.30;;;;;;4170132;28;20473;-84
2021/05/24 04:58:29;;;;;;;4.63;4.03;;;10.70;98.30;;;;;;4171864;28;20559;-84
2021/05/24 05:00:31;;;;;;;5.10;4.70;;;10.70;98.30;;;;;;4170502;28;20525;-85
2021/05/24 05:02:34;;;;;;;5.80;4.30;;;10.80;98.30;;;;;;4170352;28;20501;-87
2021/05/24 05:04:36;;;;;;;4.77;4.30;;;10.90;98.30;;;;;;4169601;28;20465;-85
2021/05/24 05:06:39;;;;;;;5.57;3.70;;;10.90;98.30;;;;;;4170932;28;20468;-85
2021/05/24 05:08:41;;;;;;;4.97;4.07;;;10.90;98.30;;;;;;4171150;28;20477;-85
2021/05/24 05:10:46;;;;;;;4.43;3.90;;;10.90;98.30;;;;;;4169911;28;20528;-84
2021/05/24 05:12:48;;;;;;;4.50;3.83;;;10.90;98.30;;;;;;4170960;28;20468;-86
2021/05/24 05:14:51;;;;;;;5.30;4.20;;;11.00;98.30;;;;;;4165531;28;20493;-86
2021/05/24 05:16:53;;;;;;;5.90;4.20;;;11.00;98.30;;;;;;4166010;28;20476;-85
2021/05/24 05:18:56;;;;;;;4.50;3.90;;;11.10;98.30;;;;;;4168341;28;20853;-86
2021/05/24 05:20:58;;;;;;;8.47;5.77;;;11.20;98.30;;;;;;4165168;28;20481;-87
2021/05/24 05:23:01;;;;;;;4.30;3.70;;;11.30;98.30;;;;;;4166014;28;20504;-85
2021/05/24 05:25:05;;;;;;;4.83;3.53;;;11.40;98.30;;;;;;4165192;28;20483;-85
2021/05/24 05:27:08;;;;;;;4.60;3.77;;;11.50;98.30;;;;;;4165309;28;20465;-85
2021/05/24 05:29:15;;;;;;;5.17;3.87;;;11.50;98.30;;;;;;4165698;28;20469;-87
2021/05/24 05:31:18;;;;;;;3.80;3.50;;;11.60;98.30;;;;;;4167520;28;20576;-85
2021/05/24 05:33:20;;;;;;;5.97;3.50;;;11.60;98.30;;;;;;4166391;28;20485;-85
2021/05/24 05:35:23;;;;;;;5.30;3.80;;;11.60;98.30;;;;;;4165839;28;20465;-85
2021/05/24 05:37:25;;;;;;;6.00;3.73;;;11.60;98.30;;;;;;4168827;28;20480;-84
2021/05/24 05:39:27;;;;;;;4.80;3.90;;;11.60;98.30;;;;;;4168644;28;20469;-84
2021/05/24 05:41:30;;;;;;;4.50;3.50;;;11.70;98.30;;;;;;4167858;28;20596;-84
2021/05/24 05:43:33;;;;;;;3.60;3.30;;;11.70;98.30;;;;;;4166871;28;20462;-85
2021/05/24 05:45:36;;;;;;;5.40;3.67;;;11.80;98.30;;;;;;4168274;28;20930;-85
2021/05/24 05:47:38;;;;;;;7.70;3.57;;;11.80;98.30;;;;;;4168382;28;20507;-87
2021/05/24 05:54:15;;;;;;;4.30;3.90;;;11.90;98.30;;;;;;4308922;23;20658;-85
2021/05/24 05:56:17;;;;;;;5.33;3.13;;;12.00;98.30;;;;;;4143775;28;20492;-84
2021/05/24 05:58:20;;;;;;;5.37;3.00;;;11.90;98.30;;;;;;4143837;28;20820;-83
2021/05/24 06:00:24;;;;;;;3.50;3.20;;;12.00;98.30;;;;;;4144437;28;20493;-84
2021/05/24 06:02:26;;;;;;;5.00;3.07;;;12.00;98.30;;;;;;4146144;28;20470;-83
2021/05/24 06:04:31;;;;;;;4.37;3.20;;;12.10;98.30;;;;;;4141349;28;20462;-84
2021/05/24 06:06:33;;;;;;;5.00;3.17;;;12.10;98.30;;;;;;4147243;28;20462;-84
2021/05/24 06:08:36;;;;;;;4.23;3.33;;;12.00;98.30;;;;;;4144955;28;20520;-84
2021/05/24 06:10:38;;;;;;;6.30;3.30;;;12.10;98.30;;;;;;4144983;28;20490;-84
2021/05/24 06:12:41;;;;;;;3.80;3.27;;;12.10;98.30;;;;;;4144821;28;20581;-84
2021/05/24 06:14:43;;;;;;;4.83;3.37;;;12.10;98.30;;;;;;4143530;28;21026;-85
2021/05/24 06:16:47;;;;;;;8.60;4.07;;;12.30;98.30;;;;;;4143541;28;20466;-84
2021/05/24 06:18:50;;;;;;;3.80;3.30;;;12.30;98.30;;;;;;4144057;28;20466;-85
2021/05/24 06:20:53;;;;;;;7.10;3.60;;;12.30;98.30;;;;;;4143877;28;21028;-84
2021/05/24 06:22:56;;;;;;;8.47;4.10;;;12.40;98.30;;;;;;4144020;28;20894;-85
2021/05/24 06:24:58;;;;;;;3.87;3.37;;;12.50;98.30;;;;;;4143780;28;20905;-84
2021/05/24 06:27:01;;;;;;;4.80;3.63;;;12.50;98.30;;;;;;4143121;28;20971;-84
2021/05/24 06:29:04;;;;;;;5.50;3.07;;;12.60;98.30;;;;;;4145455;28;20481;-84
2021/05/24 06:31:07;;;;;;;6.63;3.10;;;12.70;98.30;;;;;;4144555;28;20862;-84
2021/05/24 06:33:11;;;;;;;3.80;3.50;;;12.70;98.30;;;;;;4144180;28;20467;-85
2021/05/24 06:35:14;;;;;;;4.27;3.27;;;12.80;98.30;;;;;;4145808;28;20501;-84
2021/05/24 06:37:16;;;;;;;4.20;3.00;;;13.00;98.30;;;;;;4149819;28;21069;-84
2021/05/24 06:39:20;;;;;;;3.33;2.70;;;13.10;98.30;;;;;;4149263;28;20954;-85
2021/05/24 06:41:23;;;;;;;4.53;3.63;;;13.20;98.30;;;;;;4146646;28;20492;-84
2021/05/24 06:43:25;;;;;;;3.40;2.90;;;13.20;98.30;;;;;;4149333;28;20887;-84
2021/05/24 06:45:28;;;;;;;5.23;3.20;;;13.30;98.30;;;;;;4145433;28;20474;-84
2021/05/24 06:47:30;;;;;;;5.13;3.90;;;13.40;98.30;;;;;;4149348;28;20560;-84
2021/05/24 06:49:35;;;;;;;3.43;3.10;;;13.50;98.30;;;;;;4147076;28;20497;-84
2021/05/24 06:51:37;;;;;;;3.83;3.20;;;13.50;98.30;;;;;;4145751;28;20469;-84
2021/05/24 06:53:40;;;;;;;5.17;3.40;;;13.60;98.30;;;;;;4147039;28;20513;-84
2021/05/24 06:55:42;;;;;;;4.00;3.60;;;13.70;98.30;;;;;;4147355;28;20474;-84
2021/05/24 06:57:45;;;;;;;3.63;2.97;;;13.80;98.30;;;;;;4147857;28;20509;-84
2021/05/24 06:59:47;;;;;;;3.73;3.00;;;13.90;98.30;;;;;;4141485;28;20497;-84
2021/05/24 07:01:50;;;;;;;4.10;2.90;;;13.90;98.30;;;;;;4146004;28;20469;-85
2021/05/24 07:03:53;;;;;;;3.00;2.60;;;14.00;98.30;;;;;;4146655;28;20466;-87
2021/05/24 07:05:57;;;;;;;4.07;3.13;;;14.00;98.30;;;;;;4147814;28;20548;-84
2021/05/24 07:08:00;;;;;;;3.73;2.60;;;14.00;98.30;;;;;;4147545;28;20472;-84
2021/05/24 07:10:04;;;;;;;3.50;3.00;;;14.00;98.30;;;;;;4147313;28;20769;-84
2021/05/24 07:12:08;;;;;;;3.07;2.70;;;14.10;98.30;;;;;;4145075;28;20469;-85
2021/05/24 07:14:14;;;;;;;5.73;2.70;;;14.10;98.30;;;;;;4145523;28;20516;-85
2021/05/24 07:16:17;;;;;;;6.40;2.90;;;14.20;98.30;;;;;;4146383;28;20484;-85
2021/05/24 07:18:20;;;;;;;3.13;2.67;;;14.30;98.30;;;;;;4147130;28;20468;-85
2021/05/24 07:20:22;;;;;;;3.67;2.90;;;14.30;98.30;;;;;;4145190;28;20500;-84
2021/05/24 07:22:26;;;;;;;6.30;2.90;;;14.50;98.30;;;;;;4145962;28;20466;-86
2021/05/24 07:24:28;;;;;;;2.97;2.67;;;14.60;98.30;;;;;;4146509;28;20469;-85
2021/05/24 07:26:32;;;;;;;3.00;2.70;;;14.60;98.30;;;;;;4140957;28;20878;-85
2021/05/24 07:28:34;;;;;;;4.40;2.73;;;14.60;98.30;;;;;;4146636;28;20476;-85
2021/05/24 07:30:37;;;;;;;4.00;2.67;;;14.60;98.30;;;;;;4146445;28;21092;-85
2021/05/24 07:32:39;;;;;;;3.57;3.27;;;14.70;98.30;;;;;;4145700;28;20466;-85
2021/05/24 07:34:43;;;;;;;3.93;2.60;;;14.90;98.30;;;;;;4146263;28;20486;-85
2021/05/24 07:36:45;;;;;;;3.70;2.57;;;15.00;98.30;;;;;;4147443;28;20480;-84
2021/05/24 07:38:49;;;;;;;2.57;2.23;;;15.10;98.30;;;;;;4147487;28;21142;-85
2021/05/24 07:40:52;;;;;;;6.00;3.30;;;15.10;98.30;;;;;;4141815;28;20489;-84
2021/05/24 07:42:57;;;;;;;4.27;2.63;;;15.20;98.30;;;;;;4149531;28;20462;-84
2021/05/24 07:44:59;;;;;;;2.80;2.30;;;15.20;98.30;;;;;;4150350;28;20470;-84
2021/05/24 07:47:03;;;;;;;12.07;5.10;;;15.30;98.30;;;;;;4145612;28;20463;-84
2021/05/24 07:49:06;;;;;;;2.77;2.50;;;15.50;98.30;;;;;;4147559;28;20512;-85
2021/05/24 07:51:09;;;;;;;3.10;2.40;;;15.50;98.20;;;;;;4144398;28;20596;-85
2021/05/24 07:53:12;;;;;;;4.27;2.40;;;15.70;98.20;;;;;;4145469;28;20478;-85
2021/05/24 07:55:15;;;;;;;3.73;2.50;;;15.60;97.70;;;;;;4152016;28;20512;-86
2021/05/24 07:57:18;;;;;;;2.00;1.80;;;15.70;97.90;;;;;;4146847;28;20493;-85
2021/05/24 07:59:20;;;;;;;3.90;2.20;;;15.70;96.80;;;;;;4145881;28;20552;-84
2021/05/24 08:01:25;;;;;;;2.63;2.10;;;15.70;97.30;;;;;;4144458;28;20493;-85
2021/05/24 08:03:27;;;;;;;4.33;2.97;;;15.90;97.50;;;;;;4146698;28;20476;-84
2021/05/24 08:05:30;;;;;;;2.40;2.20;;;16.00;96.30;;;;;;4146645;28;20895;-84
2021/05/24 08:07:32;;;;;;;2.60;2.40;;;15.90;96.70;;;;;;4147847;28;20888;-84
2021/05/24 08:09:35;;;;;;;2.93;2.40;;;16.00;96.00;;;;;;4143062;28;20457;-84
2021/05/24 08:11:41;;;;;;;3.40;2.60;;;16.00;96.30;;;;;;4150285;28;20474;-84
2021/05/24 08:13:44;;;;;;;3.00;2.20;;;16.10;97.30;;;;;;4149515;28;20472;-84
2021/05/24 08:15:46;;;;;;;3.03;2.20;;;16.10;96.30;;;;;;4148715;28;20568;-84
2021/05/24 08:17:49;;;;;;;3.53;2.10;;;16.20;96.50;;;;;;4149922;28;20553;-84
2021/05/24 08:19:51;;;;;;;2.73;2.43;;;16.30;95.90;;;;;;4149085;28;21760;-84
2021/05/24 08:21:56;;;;;;;2.30;2.10;;;16.30;95.30;;;;;;4143088;28;20505;-84
2021/05/24 08:23:59;;;;;;;3.10;2.30;;;16.30;95.50;;;;;;4145136;28;20470;-84
2021/05/24 08:26:02;;;;;;;2.93;2.50;;;16.30;96.00;;;;;;4150016;28;20550;-83
2021/05/24 08:28:05;;;;;;;3.03;2.30;;;16.40;95.80;;;;;;4144843;28;20901;-84
2021/05/24 08:30:09;;;;;;;3.17;2.50;;;16.50;96.10;;;;;;4149784;28;20512;-84
2021/05/24 08:32:12;;;;;;;5.77;2.50;;;16.50;96.30;;;;;;4146763;28;20466;-84
2021/05/24 08:34:14;;;;;;;2.70;2.47;;;16.70;95.80;;;;;;4146412;28;20470;-85
2021/05/24 08:36:16;;;;;;;3.27;2.40;;;16.70;95.40;;;;;;4147605;28;20485;-84
2021/05/24 08:38:19;;;;;;;3.50;2.50;;;16.70;95.80;;;;;;4146665;28;20482;-85
2021/05/24 08:40:23;;;;;;;2.67;2.40;;;16.80;95.40;;;;;;4147735;28;20496;-84
2021/05/24 08:42:29;;;;;;;2.83;2.10;;;16.80;95.40;;;;;;4148224;28;20493;-84
2021/05/24 08:44:35;;;;;;;2.53;2.30;;;17.00;95.70;;;;;;4148154;28;20520;-84
2021/05/24 08:46:39;;;;;;;3.97;2.30;;;17.20;95.30;;;;;;4150211;28;20473;-84
2021/05/24 08:48:42;;;;;;;2.20;2.00;;;17.40;94.10;;;;;;4149824;28;21003;-84
2021/05/24 08:50:44;;;;;;;2.53;2.20;;;17.40;93.20;;;;;;4145053;28;20486;-84
2021/05/24 08:52:47;;;;;;;2.37;2.13;;;17.30;92.40;;;;;;4148905;28;20960;-85
2021/05/24 08:54:50;;;;;;;3.90;2.10;;;17.40;93.20;;;;;;4144717;28;21003;-85
2021/05/24 08:56:52;;;;;;;4.80;2.20;;;17.50;93.20;;;;;;4139418;28;20498;-86
2021/05/24 08:58:57;;;;;;;2.20;2.00;;;17.70;91.20;;;;;;4143307;28;20505;-84
2021/05/24 09:01:01;;;;;;;2.80;2.30;;;17.90;91.00;;;;;;4139715;28;20502;-85
2021/05/24 09:03:16;;;;;;;2.13;1.93;;;17.80;90.50;;;;;;4148701;28;20932;-85
2021/05/24 09:05:19;;;;;;;2.27;1.90;;;17.90;89.60;;;;;;4143882;28;20454;-86
2021/05/24 09:07:22;;;;;;;2.43;2.03;;;18.00;89.00;;;;;;4145034;28;20477;-87
2021/05/24 09:09:24;;;;;;;4.33;2.20;;;18.20;89.10;;;;;;4140658;28;20461;-85
2021/05/24 09:11:29;;;;;;;3.10;1.90;;;18.20;89.00;;;;;;4143466;28;20487;-86
2021/05/24 09:13:33;;;;;;;2.83;2.43;;;18.30;89.20;;;;;;4146077;28;20474;-87
2021/05/24 09:15:42;;;;;;;2.67;2.00;;;18.20;88.90;;;;;;4141489;28;21002;-86
2021/05/24 09:17:48;;;;;;;2.40;2.10;;;18.40;88.90;;;;;;4146356;28;20851;-86
2021/05/24 09:19:50;;;;;;;6.87;2.60;;;18.40;88.00;;;;;;4145640;28;20469;-86
2021/05/24 09:21:57;;;;;;;2.10;1.90;;;18.40;87.40;;;;;;4142092;28;20498;-84
2021/05/24 09:24:21;;;;;;;5.30;2.47;;;18.40;88.20;;;;;;4144540;28;20462;-83
2021/05/24 09:26:26;;;;;;;4.53;2.27;;;18.50;88.60;;;;;;4144647;28;20963;-84
2021/05/24 09:28:34;;;;;;;3.50;2.10;;;18.30;88.30;;;;;;4143636;28;20466;-83
2021/05/24 09:30:41;;;;;;;3.23;2.20;;;18.30;89.20;;;;;;4144347;28;20489;-84
2021/05/24 09:32:44;;;;;;;4.10;2.47;;;18.40;88.30;;;;;;4144554;28;20462;-84
2021/05/24 09:34:49;;;;;;;2.10;1.87;;;18.50;87.40;;;;;;4143768;28;20474;-84
2021/05/24 09:36:59;;;;;;;3.23;2.00;;;18.60;87.50;;;;;;4142367;28;20466;-86
2021/05/24 09:39:05;;;;;;;2.63;2.00;;;18.60;86.70;;;;;;4141589;28;21491;-86
2021/05/24 09:41:10;;;;;;;1.90;1.80;;;18.60;86.70;;;;;;4143332;28;20493;-86
2021/05/24 09:43:17;;;;;;;3.40;2.07;;;18.50;85.20;;;;;;4143853;28;20535;-85
2021/05/24 09:45:21;;;;;;;3.33;2.80;;;18.60;84.70;;;;;;4144362;28;20872;-84
2021/05/24 09:47:34;;;;;;;5.40;2.20;;;18.80;84.70;;;;;;4141792;28;20850;-84
2021/05/24 09:49:37;;;;;;;2.80;2.07;;;18.80;85.00;;;;;;4145894;28;20568;-84
2021/05/24 09:51:45;;;;;;;3.77;2.37;;;18.90;85.20;;;;;;4142972;28;20489;-85
2021/05/24 09:54:00;;;;;;;2.03;1.60;;;18.90;83.90;;;;;;4143184;28;20503;-84
2021/05/24 09:56:07;;;;;;;3.47;1.90;;;18.80;83.40;;;;;;4141740;28;20486;-83
2021/05/24 09:58:12;;;;;;;4.90;2.20;;;18.80;84.30;;;;;;4144169;28;20469;-84
2021/05/24 10:00:17;;;;;;;2.00;1.80;;;19.10;84.90;;;;;;4143339;28;20521;-84
2021/05/24 10:02:25;;;;;;;1.90;1.70;;;19.40;84.50;;;;;;4142761;28;20470;-85
2021/05/24 10:04:29;;;;;;;2.30;1.93;;;19.30;82.70;;;;;;4143009;28;21045;-84
2021/05/24 10:06:32;;;;;;;2.17;1.93;;;19.10;84.00;;;;;;4144696;28;20494;-84
2021/05/24 10:08:35;;;;;;;2.20;1.83;;;19.40;83.20;;;;;;4142359;28;20474;-83
2021/05/24 10:10:39;;;;;;;3.30;1.70;;;19.40;81.80;;;;;;4143161;28;20551;-84
2021/05/24 10:12:41;;;;;;;3.77;2.30;;;19.50;81.70;;;;;;4145202;28;20466;-84
2021/05/24 10:14:43;;;;;;;2.13;1.93;;;19.60;81.40;;;;;;4141872;28;20842;-83
2021/05/24 10:16:48;;;;;;;1.90;1.50;;;19.50;81.00;;;;;;4145248;28;20830;-84
2021/05/24 10:18:51;;;;;;;2.37;2.10;;;19.70;80.80;;;;;;4145987;28;20473;-83
2021/05/24 10:20:54;;;;;;;3.17;2.10;;;19.70;80.80;;;;;;4144395;28;21065;-85
2021/05/24 10:22:57;;;;;;;2.00;1.70;;;19.60;80.00;;;;;;4143460;28;20492;-85
2021/05/24 10:25:01;;;;;;;3.20;1.90;;;19.70;80.40;;;;;;4145223;28;20458;-84
2021/05/24 10:27:04;;;;;;;3.17;2.03;;;19.60;80.10;;;;;;4144418;28;20808;-84
2021/05/24 10:29:08;;;;;;;3.20;2.10;;;19.60;80.90;;;;;;4145511;28;20481;-84
2021/05/24 10:31:18;;;;;;;3.70;1.97;;;19.50;81.10;;;;;;4145271;28;20540;-85
2021/05/24 10:33:25;;;;;;;3.10;2.53;;;19.40;80.50;;;;;;4144563;28;21042;-85
2021/05/24 10:35:33;;;;;;;3.33;2.00;;;19.60;80.80;;;;;;4144772;28;20563;-84
2021/05/24 10:37:42;;;;;;;2.03;1.80;;;19.90;80.70;;;;;;4141649;28;20476;-84
2021/05/24 10:39:48;;;;;;;3.73;2.10;;;20.20;80.10;;;;;;4143867;28;20905;-84
2021/05/24 10:41:58;;;;;;;2.30;1.93;;;20.50;78.30;;;;;;4144723;28;20470;-84
2021/05/24 10:44:15;;;;;;;3.80;1.90;;;20.50;76.70;;;;;;4140099;28;20472;-85
2021/05/24 10:46:35;;;;;;;3.23;2.17;;;20.40;76.80;;;;;;4126804;28;20471;-84
2021/05/24 10:48:38;;;;;;;2.00;1.60;;;20.40;77.50;;;;;;4145872;28;20528;-86
2021/05/24 10:50:42;;;;;;;2.97;1.90;;;20.30;77.20;;;;;;4144780;28;20489;-87